sensor_id;sensor_type;location;lat;lon;timestamp;pressure;altitude;pressure_sealevel;temperature;humidity
16580;BME280;8402;51.466;6.806;2024-02-21T00:02:25;102030.78;;;10.60;100.00
16580;BME280;8402;51.466;6.806;2024-02-21T00:04:55;102022.06;;;10.63;100.00
16580;BME280;8402;51.466;6.806;2024-02-21T00:07:39;102025.34;;;10.60;100.00
16580;BME280;8402;51.466;6.806;2024-02-21T00:10:20;102026.97;;;10.61;100.00
16580;BME280;8402;51.466;6.806;2024-02-21T00:12:58;102019.09;;;10.60;100.00
16580;BME280;8402;51.466;6.806;2024-02-21T00:15:29;102015.03;;;10.57;100.00
16580;BME280;8402;51.466;6.806;2024-02-21T00:17:59;102016.69;;;10.58;100.00
16580;BME280;8402;51.466;6.806;2024-02-21T00:20:39;102005.81;;;10.58;100.00
16580;BME280;8402;51.466;6.806;2024-02-21T00:23:14;102002.00;;;10.59;100.00
16580;BME280;8402;51.466;6.806;2024-02-21T00:25:45;102002.81;;;10.60;100.00
16580;BME280;8402;51.466;6.806;2024-02-21T00:28:15;102002.53;;;10.61;100.00
16580;BME280;8402;51.466;6.806;2024-02-21T00:30:47;101990.59;;;10.57;100.00
16580;BME280;8402;51.466;6.806;2024-02-21T00:33:22;101989.53;;;10.58;100.00
16580;BME280;8402;51.466;6.806;2024-02-21T00:36:04;101978.19;;;10.51;100.00
16580;BME280;8402;51.466;6.806;2024-02-21T00:38:37;101977.03;;;10.57;100.00
16580;BME280;8402;51.466;6.806;2024-02-21T00:41:10;101979.75;;;10.57;100.00
16580;BME280;8402;51.466;6.806;2024-02-21T00:43:42;101976.19;;;10.62;100.00
16580;BME280;8402;51.466;6.806;2024-02-21T00:46:18;101966.13;;;10.67;100.00
16580;BME280;8402;51.466;6.806;2024-02-21T00:48:49;101965.53;;;10.70;100.00
16580;BME280;8402;51.466;6.806;2024-02-21T00:51:20;101970.16;;;10.70;100.00
16580;BME280;8402;51.466;6.806;2024-02-21T00:53:54;101965.53;;;10.70;100.00
16580;BME280;8402;51.466;6.806;2024-02-21T00:56:24;101967.16;;;10.71;100.00
16580;BME280;8402;51.466;6.806;2024-02-21T00:59:00;101966.63;;;10.69;100.00
16580;BME280;8402;51.466;6.806;2024-02-21T01:01:40;101963.91;;;10.69;100.00
16580;BME280;8402;51.466;6.806;2024-02-21T01:04:16;101962.88;;;10.65;100.00
16580;BME280;8402;51.466;6.806;2024-02-21T01:06:49;101958.25;;;10.66;100.00
16580;BME280;8402;51.466;6.806;2024-02-21T01:09:23;101949.34;;;10.60;100.00
16580;BME280;8402;51.466;6.806;2024-02-21T01:11:54;101942.53;;;10.63;100.00
16580;BME280;8402;51.466;6.806;2024-02-21T01:14:27;101940.09;;;10.61;100.00
16580;BME280;8402;51.466;6.806;2024-02-21T01:16:57;101931.44;;;10.59;100.00
16580;BME280;8402;51.466;6.806;2024-02-21T01:19:28;101929.03;;;10.58;100.00
16580;BME280;8402;51.466;6.806;2024-02-21T01:21:58;101919.00;;;10.53;100.00
16580;BME280;8402;51.466;6.806;2024-02-21T01:24:34;101906.47;;;10.57;100.00
16580;BME280;8402;51.466;6.806;2024-02-21T01:27:23;101909.19;;;10.57;100.00
16580;BME280;8402;51.466;6.806;2024-02-21T01:30:02;101903.72;;;10.62;100.00
16580;BME280;8402;51.466;6.806;2024-02-21T01:32:42;101905.34;;;10.63;100.00
16580;BME280;8402;51.466;6.806;2024-02-21T01:35:12;101914.56;;;10.62;100.00
16580;BME280;8402;51.466;6.806;2024-02-21T01:37:43;101909.41;;;10.66;100.00
16580;BME280;8402;51.466;6.806;2024-02-21T01:40:33;101903.72;;;10.62;100.00
16580;BME280;8402;51.466;6.806;2024-02-21T01:43:16;101899.69;;;10.60;100.00
16580;BME280;8402;51.466;6.806;2024-02-21T01:45:49;101901.59;;;10.59;100.00
16580;BME280;8402;51.466;6.806;2024-02-21T01:48:19;101893.97;;;10.61;100.00
16580;BME280;8402;51.466;6.806;2024-02-21T01:50:51;101888.81;;;10.60;100.00
16580;BME280;8402;51.466;6.806;2024-02-21T01:53:27;101879.34;;;10.57;100.00
16580;BME280;8402;51.466;6.806;2024-02-21T01:56:02;101891.28;;;10.56;100.00
16580;BME280;8402;51.466;6.806;2024-02-21T01:58:34;101882.63;;;10.54;100.00
16580;BME280;8402;51.466;6.806;2024-02-21T02:01:15;101877.78;;;10.51;100.00
16580;BME280;8402;51.466;6.806;2024-02-21T02:03:48;101881.03;;;10.53;100.00
16580;BME280;8402;51.466;6.806;2024-02-21T02:06:20;101870.19;;;10.48;100.00
16580;BME280;8402;51.466;6.806;2024-02-21T02:08:52;101870.72;;;10.50;100.00
16580;BME280;8402;51.466;6.806;2024-02-21T02:11:26;101863.13;;;10.52;100.00
16580;BME280;8402;51.466;6.806;2024-02-21T02:13:59;101856.59;;;10.53;100.00
16580;BME280;8402;51.466;6.806;2024-02-21T02:16:31;101862.53;;;10.55;100.00
16580;BME280;8402;51.466;6.806;2024-02-21T02:19:03;101851.97;;;10.54;100.00
16580;BME280;8402;51.466;6.806;2024-02-21T02:21:46;101843.31;;;10.52;100.00
16580;BME280;8402;51.466;6.806;2024-02-21T02:24:29;101833.31;;;10.47;100.00
16580;BME280;8402;51.466;6.806;2024-02-21T02:26:59;101824.06;;;10.48;100.00
16580;BME280;8402;51.466;6.806;2024-02-21T02:29:35;101813.81;;;10.45;100.00
16580;BME280;8402;51.466;6.806;2024-02-21T02:32:07;101812.81;;;10.36;100.00
16580;BME280;8402;51.466;6.806;2024-02-21T02:34:43;101808.19;;;10.36;100.00
16580;BME280;8402;51.466;6.806;2024-02-21T02:37:18;101798.97;;;10.37;100.00
16580;BME280;8402;51.466;6.806;2024-02-21T02:39:54;101803.56;;;10.37;100.00
16580;BME280;8402;51.466;6.806;2024-02-21T02:42:24;101816.59;;;10.35;100.00
16580;BME280;8402;51.466;6.806;2024-02-21T02:45:04;101807.47;;;10.26;100.00
16580;BME280;8402;51.466;6.806;2024-02-21T02:47:34;101793.06;;;10.30;100.00
16580;BME280;8402;51.466;6.806;2024-02-21T02:50:08;101790.91;;;10.27;100.00
16580;BME280;8402;51.466;6.806;2024-02-21T02:52:46;101809.66;;;10.24;100.00
16580;BME280;8402;51.466;6.806;2024-02-21T02:55:25;101815.06;;;10.29;100.00
16580;BME280;8402;51.466;6.806;2024-02-21T02:57:58;101811.75;;;10.32;100.00
16580;BME280;8402;51.466;6.806;2024-02-21T03:00:28;101806.34;;;10.32;100.00
16580;BME280;8402;51.466;6.806;2024-02-21T03:02:58;101791.19;;;10.26;100.00
16580;BME280;8402;51.466;6.806;2024-02-21T03:05:29;101797.69;;;10.30;100.00
16580;BME280;8402;51.466;6.806;2024-02-21T03:07:59;101786.81;;;10.30;100.00
16580;BME280;8402;51.466;6.806;2024-02-21T03:10:31;101781.41;;;10.30;100.00
16580;BME280;8402;51.466;6.806;2024-02-21T03:13:02;101789.00;;;10.28;100.00
16580;BME280;8402;51.466;6.806;2024-02-21T03:15:35;101786.88;;;10.25;100.00
16580;BME280;8402;51.466;6.806;2024-02-21T03:18:08;101780.34;;;10.26;100.00
16580;BME280;8402;51.466;6.806;2024-02-21T03:20:39;101784.72;;;10.22;100.00
16580;BME280;8402;51.466;6.806;2024-02-21T03:23:09;101780.34;;;10.20;100.00
16580;BME280;8402;51.466;6.806;2024-02-21T03:25:42;101767.38;;;10.17;100.00
16580;BME280;8402;51.466;6.806;2024-02-21T03:28:16;101759.53;;;10.16;100.00
16580;BME280;8402;51.466;6.806;2024-02-21T03:30:48;101752.25;;;10.11;100.00
16580;BME280;8402;51.466;6.806;2024-02-21T03:33:18;101760.91;;;10.13;100.00
16580;BME280;8402;51.466;6.806;2024-02-21T03:35:50;101762.53;;;10.14;100.00
16580;BME280;8402;51.466;6.806;2024-02-21T03:38:22;101771.19;;;10.16;100.00
16580;BME280;8402;51.466;6.806;2024-02-21T03:40:55;101770.59;;;10.19;100.00
16580;BME280;8402;51.466;6.806;2024-02-21T03:43:25;101766.25;;;10.24;100.00
16580;BME280;8402;51.466;6.806;2024-02-21T03:45:55;101760.31;;;10.22;100.00
16580;BME280;8402;51.466;6.806;2024-02-21T03:48:25;101769.78;;;10.24;100.00
16580;BME280;8402;51.466;6.806;2024-02-21T03:50:55;101773.03;;;10.21;100.00
16580;BME280;8402;51.466;6.806;2024-02-21T03:53:25;101765.19;;;10.19;100.00
16580;BME280;8402;51.466;6.806;2024-02-21T03:56:01;101774.13;;;10.20;100.00
16580;BME280;8402;51.466;6.806;2024-02-21T03:58:31;101778.44;;;10.21;100.00
16580;BME280;8402;51.466;6.806;2024-02-21T04:01:04;101779.03;;;10.18;100.00
16580;BME280;8402;51.466;6.806;2024-02-21T04:03:37;101772.81;;;10.17;100.00
16580;BME280;8402;51.466;6.806;2024-02-21T04:06:07;101775.22;;;10.19;100.00
16580;BME280;8402;51.466;6.806;2024-02-21T04:08:38;101770.59;;;10.19;100.00
16580;BME280;8402;51.466;6.806;2024-02-21T04:11:11;101770.59;;;10.19;100.00
16580;BME280;8402;51.466;6.806;2024-02-21T04:13:41;101769.00;;;10.18;100.00
16580;BME280;8402;51.466;6.806;2024-02-21T04:16:11;101767.09;;;10.19;100.00
16580;BME280;8402;51.466;6.806;2024-02-21T04:18:41;101764.66;;;10.23;100.00
16580;BME280;8402;51.466;6.806;2024-02-21T04:21:26;101760.25;;;10.27;100.00
16580;BME280;8402;51.466;6.806;2024-02-21T04:23:56;101757.25;;;10.28;100.00
16580;BME280;8402;51.466;6.806;2024-02-21T04:26:29;101747.75;;;10.31;100.00
16580;BME280;8402;51.466;6.806;2024-02-21T04:28:59;101750.47;;;10.31;100.00
16580;BME280;8402;51.466;6.806;2024-02-21T04:31:32;101745.03;;;10.31;100.00
16580;BME280;8402;51.466;6.806;2024-02-21T04:34:02;101755.88;;;10.31;100.00
16580;BME280;8402;51.466;6.806;2024-02-21T04:36:39;101749.66;;;10.30;100.00
16580;BME280;8402;51.466;6.806;2024-02-21T04:39:16;101740.16;;;10.28;100.00
16580;BME280;8402;51.466;6.806;2024-02-21T04:41:52;101742.97;;;10.23;100.00
16580;BME280;8402;51.466;6.806;2024-02-21T04:44:28;101754.63;;;10.23;100.00
16580;BME280;8402;51.466;6.806;2024-02-21T04:46:57;101735.88;;;10.22;100.00
16580;BME280;8402;51.466;6.806;2024-02-21T04:49:28;101740.47;;;10.21;100.00
16580;BME280;8402;51.466;6.806;2024-02-21T04:52:08;101732.09;;;10.23;100.00
16580;BME280;8402;51.466;6.806;2024-02-21T04:54:39;101733.72;;;10.24;100.00
16580;BME280;8402;51.466;6.806;2024-02-21T04:57:12;101733.72;;;10.24;100.00
16580;BME280;8402;51.466;6.806;2024-02-21T04:59:45;101735.34;;;10.25;100.00
16580;BME280;8402;51.466;6.806;2024-02-21T05:02:16;101739.09;;;10.29;100.00
16580;BME280;8402;51.466;6.806;2024-02-21T05:04:47;101741.22;;;10.32;100.00
16580;BME280;8402;51.466;6.806;2024-02-21T05:07:17;101738.47;;;10.37;100.00
16580;BME280;8402;51.466;6.806;2024-02-21T05:09:47;101737.38;;;10.38;100.00
16580;BME280;8402;51.466;6.806;2024-02-21T05:12:25;101732.50;;;10.35;100.00
16580;BME280;8402;51.466;6.806;2024-02-21T05:14:59;101723.84;;;10.33;100.00
16580;BME280;8402;51.466;6.806;2024-02-21T05:17:37;101721.72;;;10.30;100.00
16580;BME280;8402;51.466;6.806;2024-02-21T05:20:22;101720.09;;;10.29;100.00
16580;BME280;8402;51.466;6.806;2024-02-21T05:22:55;101730.97;;;10.29;100.00
16580;BME280;8402;51.466;6.806;2024-02-21T05:25:28;101718.47;;;10.28;100.00
16580;BME280;8402;51.466;6.806;2024-02-21T05:28:01;101711.44;;;10.27;100.00
16580;BME280;8402;51.466;6.806;2024-02-21T05:30:33;101709.31;;;10.24;100.00
16580;BME280;8402;51.466;6.806;2024-02-21T05:33:09;101709.31;;;10.24;100.00
16580;BME280;8402;51.466;6.806;2024-02-21T05:35:50;101709.31;;;10.24;100.00
16580;BME280;8402;51.466;6.806;2024-02-21T05:38:21;101692.50;;;10.22;100.00
16580;BME280;8402;51.466;6.806;2024-02-21T05:40:56;101710.41;;;10.23;100.00
16580;BME280;8402;51.466;6.806;2024-02-21T05:43:29;101700.06;;;10.25;100.00
16580;BME280;8402;51.466;6.806;2024-02-21T05:45:59;101701.38;;;10.27;100.00
16580;BME280;8402;51.466;6.806;2024-02-21T05:48:29;101695.41;;;10.30;100.00
16580;BME280;8402;51.466;6.806;2024-02-21T05:51:05;101689.69;;;10.32;100.00
16580;BME280;8402;51.466;6.806;2024-02-21T05:53:38;101704.34;;;10.31;100.00
16580;BME280;8402;51.466;6.806;2024-02-21T05:56:10;101697.31;;;10.30;100.00
16580;BME280;8402;51.466;6.806;2024-02-21T05:58:46;101695.41;;;10.30;100.00
16580;BME280;8402;51.466;6.806;2024-02-21T06:01:19;101684.84;;;10.29;100.00
16580;BME280;8402;51.466;6.806;2024-02-21T06:03:52;101677.78;;;10.28;100.00
16580;BME280;8402;51.466;6.806;2024-02-21T06:06:25;101671.84;;;10.26;100.00
16580;BME280;8402;51.466;6.806;2024-02-21T06:08:55;101674.84;;;10.24;100.00
16580;BME280;8402;51.466;6.806;2024-02-21T06:11:25;101662.66;;;10.22;100.00
16580;BME280;8402;51.466;6.806;2024-02-21T06:13:58;101656.97;;;10.18;100.00
16580;BME280;8402;51.466;6.806;2024-02-21T06:16:28;101655.66;;;10.15;100.00
16580;BME280;8402;51.466;6.806;2024-02-21T06:18:58;101647.25;;;10.17;100.00
16580;BME280;8402;51.466;6.806;2024-02-21T06:21:32;101646.44;;;10.16;100.00
16580;BME280;8402;51.466;6.806;2024-02-21T06:24:02;101652.66;;;10.17;100.00
16580;BME280;8402;51.466;6.806;2024-02-21T06:26:32;101645.84;;;10.19;100.00
16580;BME280;8402;51.466;6.806;2024-02-21T06:29:04;101642.03;;;10.20;100.00
16580;BME280;8402;51.466;6.806;2024-02-21T06:31:35;101648.53;;;10.25;100.00
16580;BME280;8402;51.466;6.806;2024-02-21T06:34:05;101637.69;;;10.25;100.00
16580;BME280;8402;51.466;6.806;2024-02-21T06:36:35;101638.50;;;10.25;100.00
16580;BME280;8402;51.466;6.806;2024-02-21T06:39:05;101633.63;;;10.22;100.00
16580;BME280;8402;51.466;6.806;2024-02-21T06:41:35;101632.81;;;10.22;100.00
16580;BME280;8402;51.466;6.806;2024-02-21T06:44:08;101626.31;;;10.23;100.00
16580;BME280;8402;51.466;6.806;2024-02-21T06:46:38;101624.13;;;10.25;100.00
16580;BME280;8402;51.466;6.806;2024-02-21T06:49:08;101621.41;;;10.25;100.00
16580;BME280;8402;51.466;6.806;2024-02-21T06:51:43;101625.75;;;10.20;100.00
16580;BME280;8402;51.466;6.806;2024-02-21T06:54:13;101629.28;;;10.21;100.00
16580;BME280;8402;51.466;6.806;2024-02-21T06:56:45;101620.34;;;10.20;100.00
16580;BME280;8402;51.466;6.806;2024-02-21T06:59:18;101617.34;;;10.22;100.00
16580;BME280;8402;51.466;6.806;2024-02-21T07:01:48;101628.19;;;10.22;100.00
16580;BME280;8402;51.466;6.806;2024-02-21T07:04:19;101629.03;;;10.23;100.00
16580;BME280;8402;51.466;6.806;2024-02-21T07:06:49;101626.84;;;10.25;100.00
16580;BME280;8402;51.466;6.806;2024-02-21T07:09:19;101621.72;;;10.23;100.00
16580;BME280;8402;51.466;6.806;2024-02-21T07:11:49;101629.84;;;10.23;100.00
16580;BME280;8402;51.466;6.806;2024-02-21T07:14:22;101621.13;;;10.26;100.00
16580;BME280;8402;51.466;6.806;2024-02-21T07:16:51;101622.97;;;10.31;100.00
16580;BME280;8402;51.466;6.806;2024-02-21T07:19:24;101623.47;;;10.33;100.00
16580;BME280;8402;51.466;6.806;2024-02-21T07:21:55;101616.44;;;10.32;100.00
16580;BME280;8402;51.466;6.806;2024-02-21T07:24:25;101616.78;;;10.25;100.00
16580;BME280;8402;51.466;6.806;2024-02-21T07:26:55;101616.19;;;10.28;100.00
16580;BME280;8402;51.466;6.806;2024-02-21T07:29:34;101618.66;;;10.30;100.00
16580;BME280;8402;51.466;6.806;2024-02-21T07:32:04;101611.00;;;10.32;100.00
16580;BME280;8402;51.466;6.806;2024-02-21T07:34:34;101617.53;;;10.31;100.00
16580;BME280;8402;51.466;6.806;2024-02-21T07:37:05;101614.81;;;10.31;100.00
16580;BME280;8402;51.466;6.806;2024-02-21T07:39:37;101612.13;;;10.31;100.00
16580;BME280;8402;51.466;6.806;2024-02-21T07:42:07;101608.31;;;10.32;100.00
16580;BME280;8402;51.466;6.806;2024-02-21T07:44:40;101611.00;;;10.32;100.00
16580;BME280;8402;51.466;6.806;2024-02-21T07:47:10;101596.34;;;10.33;100.00
16580;BME280;8402;51.466;6.806;2024-02-21T07:49:44;101592.84;;;10.32;100.00
16580;BME280;8402;51.466;6.806;2024-02-21T07:52:15;101601.22;;;10.36;100.00
16580;BME280;8402;51.466;6.806;2024-02-21T07:54:45;101585.50;;;10.33;100.00
16580;BME280;8402;51.466;6.806;2024-02-21T07:57:15;101579.41;;;10.41;100.00
16580;BME280;8402;51.466;6.806;2024-02-21T07:59:48;101579.13;;;10.42;100.00
16580;BME280;8402;51.466;6.806;2024-02-21T08:02:18;101573.47;;;10.39;100.00
16580;BME280;8402;51.466;6.806;2024-02-21T08:04:48;101571.50;;;10.44;100.00
16580;BME280;8402;51.466;6.806;2024-02-21T08:07:18;101583.75;;;10.42;100.00
16580;BME280;8402;51.466;6.806;2024-02-21T08:09:47;101581.03;;;10.42;100.00
16580;BME280;8402;51.466;6.806;2024-02-21T08:12:17;101566.16;;;10.39;100.00
16580;BME280;8402;51.466;6.806;2024-02-21T08:14:50;101559.91;;;10.39;100.00
16580;BME280;8402;51.466;6.806;2024-02-21T08:17:20;101555.00;;;10.41;100.00
16580;BME280;8402;51.466;6.806;2024-02-21T08:19:50;101558.75;;;10.45;100.00
16580;BME280;8402;51.466;6.806;2024-02-21T08:22:19;101546.00;;;10.45;100.00
16580;BME280;8402;51.466;6.806;2024-02-21T08:24:52;101544.28;;;10.50;100.00
16580;BME280;8402;51.466;6.806;2024-02-21T08:27:22;101527.19;;;10.49;100.00
16580;BME280;8402;51.466;6.806;2024-02-21T08:29:56;101529.91;;;10.49;100.00
16580;BME280;8402;51.466;6.806;2024-02-21T08:32:26;101528.53;;;10.52;100.00
16580;BME280;8402;51.466;6.806;2024-02-21T08:34:56;101541.50;;;10.55;100.00
16580;BME280;8402;51.466;6.806;2024-02-21T08:37:27;101524.94;;;10.56;100.00
16580;BME280;8402;51.466;6.806;2024-02-21T08:39:57;101525.72;;;10.57;100.00
16580;BME280;8402;51.466;6.806;2024-02-21T08:42:31;101522.75;;;10.58;100.00
16580;BME280;8402;51.466;6.806;2024-02-21T08:45:05;101527.06;;;10.59;100.00
16580;BME280;8402;51.466;6.806;2024-02-21T08:47:35;101536.09;;;10.55;100.00
16580;BME280;8402;51.466;6.806;2024-02-21T08:50:07;101532.25;;;10.56;100.00
16580;BME280;8402;51.466;6.806;2024-02-21T08:52:53;101521.19;;;10.52;100.00
16580;BME280;8402;51.466;6.806;2024-02-21T08:55:23;101518.06;;;10.45;100.00
16580;BME280;8402;51.466;6.806;2024-02-21T08:57:55;101521.88;;;10.44;100.00
16580;BME280;8402;51.466;6.806;2024-02-21T09:00:29;101508.81;;;10.46;100.00
16580;BME280;8402;51.466;6.806;2024-02-21T09:02:59;101507.72;;;10.47;100.00
16580;BME280;8402;51.466;6.806;2024-02-21T09:05:29;101498.97;;;10.50;100.00
16580;BME280;8402;51.466;6.806;2024-02-21T09:08:02;101503.81;;;10.53;100.00
16580;BME280;8402;51.466;6.806;2024-02-21T09:10:32;101503.88;;;10.48;100.00
16580;BME280;8402;51.466;6.806;2024-02-21T09:13:02;101492.38;;;10.56;100.00
16580;BME280;8402;51.466;6.806;2024-02-21T09:15:37;101489.94;;;10.55;100.00
16580;BME280;8402;51.466;6.806;2024-02-21T09:18:07;101490.97;;;10.59;100.00
16580;BME280;8402;51.466;6.806;2024-02-21T09:20:37;101491.78;;;10.59;100.00
16580;BME280;8402;51.466;6.806;2024-02-21T09:23:07;101491.78;;;10.59;100.00
16580;BME280;8402;51.466;6.806;2024-02-21T09:25:39;101480.84;;;10.64;100.00
16580;BME280;8402;51.466;6.806;2024-02-21T09:28:09;101478.72;;;10.61;100.00
16580;BME280;8402;51.466;6.806;2024-02-21T09:30:42;101469.91;;;10.69;100.00
16580;BME280;8402;51.466;6.806;2024-02-21T09:33:12;101463.78;;;10.78;100.00
16580;BME280;8402;51.466;6.806;2024-02-21T09:35:57;101469.22;;;10.78;100.00
16580;BME280;8402;51.466;6.806;2024-02-21T09:38:27;101467.09;;;10.74;100.00
16580;BME280;8402;51.466;6.806;2024-02-21T09:41:00;101467.69;;;10.71;100.00
16580;BME280;8402;51.466;6.806;2024-02-21T09:43:33;101466.06;;;10.70;100.00
16580;BME280;8402;51.466;6.806;2024-02-21T09:46:08;101463.09;;;10.72;100.00
16580;BME280;8402;51.466;6.806;2024-02-21T09:48:53;101463.38;;;10.70;100.00
16580;BME280;8402;51.466;6.806;2024-02-21T09:51:28;101453.03;;;10.72;100.00
16580;BME280;8402;51.466;6.806;2024-02-21T09:54:00;101475.25;;;10.74;100.00
16580;BME280;8402;51.466;6.806;2024-02-21T09:56:42;101463.38;;;10.70;100.00
16580;BME280;8402;51.466;6.806;2024-02-21T09:59:12;101455.16;;;10.75;100.00
16580;BME280;8402;51.466;6.806;2024-02-21T10:01:45;101459.38;;;10.82;100.00
16580;BME280;8402;51.466;6.806;2024-02-21T10:04:17;101455.50;;;10.88;100.00
16580;BME280;8402;51.466;6.806;2024-02-21T10:06:48;101453.78;;;10.92;100.00
16580;BME280;8402;51.466;6.806;2024-02-21T10:09:22;101457.09;;;10.89;100.00
16580;BME280;8402;51.466;6.806;2024-02-21T10:11:55;101447.22;;;10.93;100.00
16580;BME280;8402;51.466;6.806;2024-02-21T10:14:26;101452.47;;;10.89;100.00
16580;BME280;8402;51.466;6.806;2024-02-21T10:16:59;101445.63;;;10.92;100.00
16580;BME280;8402;51.466;6.806;2024-02-21T10:19:29;101432.03;;;10.92;100.00
16580;BME280;8402;51.466;6.806;2024-02-21T10:22:04;101428.22;;;10.93;100.00
16580;BME280;8402;51.466;6.806;2024-02-21T10:24:35;101430.94;;;10.93;100.00
16580;BME280;8402;51.466;6.806;2024-02-21T10:27:09;101435.78;;;10.96;100.00
16580;BME280;8402;51.466;6.806;2024-02-21T10:29:49;101421.72;;;10.94;100.00
16580;BME280;8402;51.466;6.806;2024-02-21T10:32:26;101416.06;;;10.90;100.00
16580;BME280;8402;51.466;6.806;2024-02-21T10:35:01;101425.22;;;10.94;100.00
16580;BME280;8402;51.466;6.806;2024-02-21T10:37:35;101411.84;;;10.98;100.00
16580;BME280;8402;51.466;6.806;2024-02-21T10:40:07;101405.03;;;11.00;100.00
16580;BME280;8402;51.466;6.806;2024-02-21T10:42:39;101398.97;;;11.03;100.00
16580;BME280;8402;51.466;6.806;2024-02-21T10:45:10;101399.78;;;11.04;100.00
16580;BME280;8402;51.466;6.806;2024-02-21T10:47:48;101397.38;;;11.02;100.00
16580;BME280;8402;51.466;6.806;2024-02-21T10:50:25;101386.69;;;11.06;100.00
16580;BME280;8402;51.466;6.806;2024-02-21T10:53:01;101375.25;;;11.09;100.00
16580;BME280;8402;51.466;6.806;2024-02-21T10:55:38;101377.75;;;11.19;100.00
16580;BME280;8402;51.466;6.806;2024-02-21T10:58:11;101358.34;;;11.26;100.00
16580;BME280;8402;51.466;6.806;2024-02-21T11:00:42;101345.94;;;11.34;100.00
16580;BME280;8402;51.466;6.806;2024-02-21T11:03:15;101337.22;;;11.37;100.00
16580;BME280;8402;51.466;6.806;2024-02-21T11:05:49;101325.22;;;11.38;100.00
16580;BME280;8402;51.466;6.806;2024-02-21T11:08:19;101320.28;;;11.40;100.00
16580;BME280;8402;51.466;6.806;2024-02-21T11:10:56;101313.44;;;11.42;100.00
16580;BME280;8402;51.466;6.806;2024-02-21T11:13:30;101312.63;;;11.42;100.00
16580;BME280;8402;51.466;6.806;2024-02-21T11:16:09;101291.41;;;11.44;100.00
16580;BME280;8402;51.466;6.806;2024-02-21T11:18:41;101289.06;;;11.51;100.00
16580;BME280;8402;51.466;6.806;2024-02-21T11:21:11;101276.94;;;11.57;100.00
16580;BME280;8402;51.466;6.806;2024-02-21T11:23:41;101267.41;;;11.60;100.00
16580;BME280;8402;51.466;6.806;2024-02-21T11:26:19;101260.03;;;11.60;100.00
16580;BME280;8402;51.466;6.806;2024-02-21T11:28:56;101237.81;;;11.58;100.00
16580;BME280;8402;51.466;6.806;2024-02-21T11:31:27;101235.47;;;11.65;100.00
16580;BME280;8402;51.466;6.806;2024-02-21T11:34:01;101225.56;;;11.69;100.00
16580;BME280;8402;51.466;6.806;2024-02-21T11:36:31;101229.75;;;11.75;100.00
16580;BME280;8402;51.466;6.806;2024-02-21T11:39:04;101211.06;;;11.74;100.00
16580;BME280;8402;51.466;6.806;2024-02-21T11:41:34;101207.03;;;11.71;100.00
16580;BME280;8402;51.466;6.806;2024-02-21T11:44:06;101197.78;;;11.72;100.00
16580;BME280;8402;51.466;6.806;2024-02-21T11:46:38;101184.47;;;11.71;100.00
16580;BME280;8402;51.466;6.806;2024-02-21T11:49:13;101181.94;;;11.74;100.00
16580;BME280;8402;51.466;6.806;2024-02-21T11:51:44;101166.59;;;11.78;100.00
16580;BME280;8402;51.466;6.806;2024-02-21T11:54:21;101166.84;;;11.82;100.00
16580;BME280;8402;51.466;6.806;2024-02-21T11:56:51;101158.38;;;11.92;100.00
16580;BME280;8402;51.466;6.806;2024-02-21T11:59:22;101153.16;;;11.96;100.00
16580;BME280;8402;51.466;6.806;2024-02-21T12:01:52;101141.81;;;12.02;100.00
16580;BME280;8402;51.466;6.806;2024-02-21T12:04:28;101132.81;;;11.93;100.00
16580;BME280;8402;51.466;6.806;2024-02-21T12:06:59;101114.44;;;11.99;100.00
16580;BME280;8402;51.466;6.806;2024-02-21T12:09:31;101112.06;;;12.06;100.00
16580;BME280;8402;51.466;6.806;2024-02-21T12:12:04;101124.41;;;12.12;100.00
16580;BME280;8402;51.466;6.806;2024-02-21T12:14:35;101137.22;;;12.20;100.00
16580;BME280;8402;51.466;6.806;2024-02-21T12:17:05;101105.56;;;12.24;100.00
16580;BME280;8402;51.466;6.806;2024-02-21T12:19:38;101099.47;;;12.27;100.00
16580;BME280;8402;51.466;6.806;2024-02-21T12:22:08;101095.63;;;12.28;100.00
16580;BME280;8402;51.466;6.806;2024-02-21T12:24:38;101091.81;;;12.29;100.00
16580;BME280;8402;51.466;6.806;2024-02-21T12:27:14;101088.59;;;12.27;100.00
16580;BME280;8402;51.466;6.806;2024-02-21T12:29:44;101082.22;;;12.32;100.00
16580;BME280;8402;51.466;6.806;2024-02-21T12:32:14;101071.34;;;12.32;100.00
16580;BME280;8402;51.466;6.806;2024-02-21T12:34:46;101080.78;;;12.34;100.00
16580;BME280;8402;51.466;6.806;2024-02-21T12:37:22;101072.13;;;12.41;100.00
16580;BME280;8402;51.466;6.806;2024-02-21T12:39:52;101076.16;;;12.44;100.00
16580;BME280;8402;51.466;6.806;2024-02-21T12:42:25;101062.38;;;12.49;100.00
16580;BME280;8402;51.466;6.806;2024-02-21T12:44:55;101060.78;;;12.48;100.00
16580;BME280;8402;51.466;6.806;2024-02-21T12:47:25;101057.44;;;12.51;100.00
16580;BME280;8402;51.466;6.806;2024-02-21T12:49:58;101055.53;;;12.51;100.00
16580;BME280;8402;51.466;6.806;2024-02-21T12:52:30;101039.34;;;12.55;100.00
16580;BME280;8402;51.466;6.806;2024-02-21T12:55:02;101047.03;;;12.61;100.00
16580;BME280;8402;51.466;6.806;2024-02-21T12:57:32;101038.06;;;12.61;100.00
16580;BME280;8402;51.466;6.806;2024-02-21T13:00:02;101033.13;;;12.72;100.00
16580;BME280;8402;51.466;6.806;2024-02-21T13:02:35;101019.50;;;12.80;100.00
16580;BME280;8402;51.466;6.806;2024-02-21T13:05:10;101012.59;;;12.74;100.00
16580;BME280;8402;51.466;6.806;2024-02-21T13:07:41;100997.69;;;12.80;100.00
16580;BME280;8402;51.466;6.806;2024-02-21T13:10:11;100994.66;;;12.82;100.00
16580;BME280;8402;51.466;6.806;2024-02-21T13:12:41;100990.00;;;12.82;100.00
16580;BME280;8402;51.466;6.806;2024-02-21T13:15:15;100982.66;;;12.74;100.00
16580;BME280;8402;51.466;6.806;2024-02-21T13:17:46;100979.78;;;12.79;100.00
16580;BME280;8402;51.466;6.806;2024-02-21T13:20:23;100980.72;;;12.83;100.00